< < Back
Terminal Aerodrome Forecast


Current Version              Previous Versions:   1  2  3  4  5  6  7  8  9  

Terminal Aerodrome Forecast

364
FTUS42 KGSP 311700
TAFHKY
TAF
KHKY 311720Z 3118/0118 VRB03KT P6SM SCT035 OVC100
      TEMPO 3118/3122 3SM -TSRA BR OVC035CB
     FM312200 05003KT P6SM -SHRA OVC060
     FM010700 05003KT 6SM BR OVC019
     FM010900 04003KT 2SM -SHRA BR OVC009
     FM011400 08005KT P6SM -SHRA SCT010 OVC090=



Latest METAR

366
SAUS70 KWBC 311700 RRS
MTRHKY
METAR KHKY 311653Z 28003KT 8SM -RA FEW032 OVC100 21/18 A3017 RMK AO2
RAB02 SLP197 P0000 T02060178


USA.gov is the U.S. government's official web portal to all federal, state and local government web resources and services.